sensor_id;sensor_type;location;lat;lon;timestamp;pressure;altitude;pressure_sealevel;temperature;humidity
11682;BME280;5897;42.640;23.310;2023-02-13T00:00:45;95568.66;;;0.06;87.66
11682;BME280;5897;42.640;23.310;2023-02-13T00:03:12;95569.88;;;0.08;87.05
11682;BME280;5897;42.640;23.310;2023-02-13T00:05:39;95573.06;;;-0.07;90.26
11682;BME280;5897;42.640;23.310;2023-02-13T00:08:06;95572.34;;;0.13;90.49
11682;BME280;5897;42.640;23.310;2023-02-13T00:10:33;95574.06;;;0.18;89.13
11682;BME280;5897;42.640;23.310;2023-02-13T00:13:00;95570.75;;;0.21;88.37
11682;BME280;5897;42.640;23.310;2023-02-13T00:15:28;95571.19;;;0.31;87.59
11682;BME280;5897;42.640;23.310;2023-02-13T00:17:55;95571.63;;;0.33;86.83
11682;BME280;5897;42.640;23.310;2023-02-13T00:20:22;95565.94;;;0.14;87.37
11682;BME280;5897;42.640;23.310;2023-02-13T00:22:49;95578.22;;;0.27;87.56
11682;BME280;5897;42.640;23.310;2023-02-13T00:25:15;95580.44;;;0.17;88.43
11682;BME280;5897;42.640;23.310;2023-02-13T00:27:42;95577.75;;;0.25;88.27
11682;BME280;5897;42.640;23.310;2023-02-13T00:30:10;95580.00;;;0.15;87.50
11682;BME280;5897;42.640;23.310;2023-02-13T00:32:38;95588.81;;;0.07;88.72
11682;BME280;5897;42.640;23.310;2023-02-13T00:35:05;95586.47;;;0.05;89.00
11682;BME280;5897;42.640;23.310;2023-02-13T00:37:32;95594.53;;;0.17;88.10
11682;BME280;5897;42.640;23.310;2023-02-13T00:39:59;95591.59;;;0.10;87.62
11682;BME280;5897;42.640;23.310;2023-02-13T00:42:26;95591.25;;;0.20;87.96
11682;BME280;5897;42.640;23.310;2023-02-13T00:44:53;95587.31;;;0.26;87.73
11682;BME280;5897;42.640;23.310;2023-02-13T00:47:20;95587.22;;;0.14;87.41
11682;BME280;5897;42.640;23.310;2023-02-13T00:49:48;95593.56;;;0.22;87.15
11682;BME280;5897;42.640;23.310;2023-02-13T00:52:15;95591.28;;;0.12;87.13
11682;BME280;5897;42.640;23.310;2023-02-13T00:54:42;95596.78;;;0.07;87.44
11682;BME280;5897;42.640;23.310;2023-02-13T00:57:08;95595.06;;;0.02;89.55
11682;BME280;5897;42.640;23.310;2023-02-13T00:59:35;95594.50;;;-0.12;90.39
11682;BME280;5897;42.640;23.310;2023-02-13T01:02:02;95599.91;;;0.00;90.14
11682;BME280;5897;42.640;23.310;2023-02-13T01:04:29;95601.56;;;0.13;90.53
11682;BME280;5897;42.640;23.310;2023-02-13T01:06:57;95602.16;;;0.27;89.83
11682;BME280;5897;42.640;23.310;2023-02-13T01:09:24;95596.91;;;0.10;89.56
11682;BME280;5897;42.640;23.310;2023-02-13T01:11:51;95602.50;;;0.17;89.58
11682;BME280;5897;42.640;23.310;2023-02-13T01:14:18;95603.06;;;0.31;90.14
11682;BME280;5897;42.640;23.310;2023-02-13T01:16:44;95588.53;;;0.29;89.55
11682;BME280;5897;42.640;23.310;2023-02-13T01:19:11;95594.16;;;0.27;88.77
11682;BME280;5897;42.640;23.310;2023-02-13T01:21:38;95588.72;;;0.24;87.89
11682;BME280;5897;42.640;23.310;2023-02-13T01:24:06;95594.97;;;0.19;88.25
11682;BME280;5897;42.640;23.310;2023-02-13T01:26:33;95601.31;;;0.06;88.03
11682;BME280;5897;42.640;23.310;2023-02-13T01:29:00;95602.06;;;0.15;88.34
11682;BME280;5897;42.640;23.310;2023-02-13T01:31:27;95594.25;;;0.10;87.97
11682;BME280;5897;42.640;23.310;2023-02-13T01:33:55;95601.91;;;0.12;88.40
11682;BME280;5897;42.640;23.310;2023-02-13T01:36:23;95608.88;;;0.25;89.44
11682;BME280;5897;42.640;23.310;2023-02-13T01:38:52;95614.09;;;0.13;90.01
11682;BME280;5897;42.640;23.310;2023-02-13T01:41:21;95590.31;;;0.16;89.99
11682;BME280;5897;42.640;23.310;2023-02-13T01:43:51;95596.19;;;0.30;89.65
11682;BME280;5897;42.640;23.310;2023-02-13T01:46:22;95610.13;;;0.27;90.08
11682;BME280;5897;42.640;23.310;2023-02-13T01:48:53;95607.22;;;0.12;91.87
11682;BME280;5897;42.640;23.310;2023-02-13T01:51:23;95604.97;;;0.22;92.27
11682;BME280;5897;42.640;23.310;2023-02-13T01:53:55;95608.84;;;0.33;91.82
11682;BME280;5897;42.640;23.310;2023-02-13T01:56:28;95606.97;;;0.25;92.55
11682;BME280;5897;42.640;23.310;2023-02-13T01:58:58;95609.50;;;0.22;93.37
11682;BME280;5897;42.640;23.310;2023-02-13T02:01:26;95615.75;;;0.26;93.56
11682;BME280;5897;42.640;23.310;2023-02-13T02:03:56;95620.56;;;0.32;93.48
11682;BME280;5897;42.640;23.310;2023-02-13T02:06:26;95613.78;;;0.43;93.10
11682;BME280;5897;42.640;23.310;2023-02-13T02:08:55;95602.91;;;0.28;93.25
11682;BME280;5897;42.640;23.310;2023-02-13T02:11:31;95626.50;;;0.29;94.40
11682;BME280;5897;42.640;23.310;2023-02-13T02:14:00;95605.38;;;0.33;94.63
11682;BME280;5897;42.640;23.310;2023-02-13T02:16:28;95602.75;;;0.53;94.17
11682;BME280;5897;42.640;23.310;2023-02-13T02:18:55;95606.72;;;0.47;95.62
11682;BME280;5897;42.640;23.310;2023-02-13T02:21:43;95603.97;;;0.35;96.83
11682;BME280;5897;42.640;23.310;2023-02-13T02:24:28;95599.09;;;0.46;97.26
11682;BME280;5897;42.640;23.310;2023-02-13T02:30:40;95598.78;;;0.39;98.32
11682;BME280;5897;42.640;23.310;2023-02-13T02:33:21;95594.34;;;0.51;98.45
11682;BME280;5897;42.640;23.310;2023-02-13T02:36:02;95608.00;;;0.41;99.61
11682;BME280;5897;42.640;23.310;2023-02-13T02:38:51;95603.59;;;0.45;99.68
11682;BME280;5897;42.640;23.310;2023-02-13T02:41:28;95599.34;;;0.53;99.37
11682;BME280;5897;42.640;23.310;2023-02-13T02:44:35;95616.53;;;0.55;99.65
11682;BME280;5897;42.640;23.310;2023-02-13T02:47:09;95612.72;;;0.65;99.61
11682;BME280;5897;42.640;23.310;2023-02-13T02:50:08;95615.13;;;0.78;98.52
11682;BME280;5897;42.640;23.310;2023-02-13T02:52:47;95619.34;;;0.79;97.93
11682;BME280;5897;42.640;23.310;2023-02-13T02:55:28;95631.34;;;0.65;98.40
11682;BME280;5897;42.640;23.310;2023-02-13T02:58:01;95624.59;;;0.67;98.93
11682;BME280;5897;42.640;23.310;2023-02-13T03:00:49;95633.19;;;0.64;99.15
11682;BME280;5897;42.640;23.310;2023-02-13T03:03:36;95638.59;;;0.76;99.32
11682;BME280;5897;42.640;23.310;2023-02-13T03:06:24;95642.91;;;0.89;99.37
11682;BME280;5897;42.640;23.310;2023-02-13T03:08:54;95643.19;;;0.96;97.86
11682;BME280;5897;42.640;23.310;2023-02-13T03:11:41;95632.28;;;1.10;97.61
11682;BME280;5897;42.640;23.310;2023-02-13T03:14:27;95624.94;;;0.86;94.94
11682;BME280;5897;42.640;23.310;2023-02-13T03:16:55;95630.56;;;0.85;98.67
11682;BME280;5897;42.640;23.310;2023-02-13T03:19:56;95629.88;;;0.96;95.21
11682;BME280;5897;42.640;23.310;2023-02-13T03:22:49;95627.41;;;0.91;94.75
11682;BME280;5897;42.640;23.310;2023-02-13T03:25:25;95628.50;;;0.90;95.85
11682;BME280;5897;42.640;23.310;2023-02-13T03:28:05;95630.63;;;0.76;97.19
11682;BME280;5897;42.640;23.310;2023-02-13T03:30:58;95628.56;;;0.82;98.52
11682;BME280;5897;42.640;23.310;2023-02-13T03:33:39;95634.53;;;0.79;97.53
11682;BME280;5897;42.640;23.310;2023-02-13T03:36:11;95634.72;;;0.74;97.94
11682;BME280;5897;42.640;23.310;2023-02-13T03:39:06;95631.09;;;0.78;97.47
11682;BME280;5897;42.640;23.310;2023-02-13T03:41:38;95640.06;;;0.74;96.93
11682;BME280;5897;42.640;23.310;2023-02-13T03:44:11;95623.53;;;0.60;97.03
11682;BME280;5897;42.640;23.310;2023-02-13T03:46:41;95641.16;;;0.93;94.85
11682;BME280;5897;42.640;23.310;2023-02-13T03:49:14;95623.94;;;0.91;94.91
11682;BME280;5897;42.640;23.310;2023-02-13T03:52:04;95625.84;;;0.90;95.05
11682;BME280;5897;42.640;23.310;2023-02-13T03:54:39;95638.28;;;0.78;95.77
11682;BME280;5897;42.640;23.310;2023-02-13T03:57:26;95616.06;;;0.82;95.81
11682;BME280;5897;42.640;23.310;2023-02-13T04:00:14;95629.63;;;0.89;95.13
11682;BME280;5897;42.640;23.310;2023-02-13T04:02:48;95620.34;;;0.95;95.53
11682;BME280;5897;42.640;23.310;2023-02-13T04:05:20;95622.19;;;0.95;94.74
11682;BME280;5897;42.640;23.310;2023-02-13T04:07:49;95622.69;;;0.97;94.33
11682;BME280;5897;42.640;23.310;2023-02-13T04:10:17;95625.66;;;0.95;94.57
11682;BME280;5897;42.640;23.310;2023-02-13T04:12:51;95630.59;;;1.05;92.96
11682;BME280;5897;42.640;23.310;2023-02-13T04:15:23;95639.66;;;1.04;93.16
11682;BME280;5897;42.640;23.310;2023-02-13T04:17:56;95631.81;;;1.08;91.98
11682;BME280;5897;42.640;23.310;2023-02-13T04:20:26;95638.16;;;0.95;91.87
11682;BME280;5897;42.640;23.310;2023-02-13T04:22:53;95633.16;;;0.93;90.93
11682;BME280;5897;42.640;23.310;2023-02-13T04:25:21;95642.25;;;0.92;91.28
11682;BME280;5897;42.640;23.310;2023-02-13T04:27:48;95645.63;;;0.81;91.68
11682;BME280;5897;42.640;23.310;2023-02-13T04:30:15;95636.75;;;0.97;90.97
11682;BME280;5897;42.640;23.310;2023-02-13T04:32:41;95631.88;;;0.99;90.88
11682;BME280;5897;42.640;23.310;2023-02-13T04:35:08;95638.16;;;0.95;90.75
11682;BME280;5897;42.640;23.310;2023-02-13T04:37:35;95640.06;;;0.94;90.39
11682;BME280;5897;42.640;23.310;2023-02-13T04:40:03;95639.25;;;0.73;90.99
11682;BME280;5897;42.640;23.310;2023-02-13T04:42:31;95630.09;;;0.62;91.29
11682;BME280;5897;42.640;23.310;2023-02-13T04:44:58;95627.66;;;0.49;92.29
11682;BME280;5897;42.640;23.310;2023-02-13T04:47:25;95635.50;;;0.45;93.35
11682;BME280;5897;42.640;23.310;2023-02-13T04:49:51;95635.34;;;0.50;93.80
11682;BME280;5897;42.640;23.310;2023-02-13T04:52:18;95634.75;;;0.36;94.52
11682;BME280;5897;42.640;23.310;2023-02-13T04:54:45;95632.09;;;0.36;96.48
11682;BME280;5897;42.640;23.310;2023-02-13T04:57:12;95636.94;;;0.43;95.33
11682;BME280;5897;42.640;23.310;2023-02-13T04:59:41;95643.00;;;0.52;95.88
11682;BME280;5897;42.640;23.310;2023-02-13T05:02:08;95641.09;;;0.52;95.31
11682;BME280;5897;42.640;23.310;2023-02-13T05:04:34;95652.13;;;0.71;94.76
11682;BME280;5897;42.640;23.310;2023-02-13T05:07:01;95655.22;;;0.73;94.71
11682;BME280;5897;42.640;23.310;2023-02-13T05:09:28;95652.44;;;0.70;95.30
11682;BME280;5897;42.640;23.310;2023-02-13T05:11:55;95659.56;;;0.78;94.89
11682;BME280;5897;42.640;23.310;2023-02-13T05:14:22;95661.00;;;0.75;94.70
11682;BME280;5897;42.640;23.310;2023-02-13T05:16:50;95653.47;;;0.77;94.76
11682;BME280;5897;42.640;23.310;2023-02-13T05:19:17;95661.16;;;0.70;94.84
11682;BME280;5897;42.640;23.310;2023-02-13T05:21:44;95661.97;;;0.71;94.85
11682;BME280;5897;42.640;23.310;2023-02-13T05:24:28;95650.34;;;0.75;94.96
11682;BME280;5897;42.640;23.310;2023-02-13T05:26:55;95657.47;;;0.63;95.16
11682;BME280;5897;42.640;23.310;2023-02-13T05:29:22;95667.47;;;0.66;95.54
11682;BME280;5897;42.640;23.310;2023-02-13T05:31:51;95663.75;;;0.58;96.21
11682;BME280;5897;42.640;23.310;2023-02-13T05:34:18;95668.13;;;0.63;95.78
11682;BME280;5897;42.640;23.310;2023-02-13T05:36:46;95659.41;;;0.54;95.95
11682;BME280;5897;42.640;23.310;2023-02-13T05:39:13;95645.44;;;0.65;94.76
11682;BME280;5897;42.640;23.310;2023-02-13T05:41:41;95668.16;;;0.83;94.16
11682;BME280;5897;42.640;23.310;2023-02-13T05:44:08;95670.81;;;0.83;94.41
11682;BME280;5897;42.640;23.310;2023-02-13T05:46:36;95672.19;;;0.89;93.81
11682;BME280;5897;42.640;23.310;2023-02-13T05:49:05;95675.09;;;0.96;93.43
11682;BME280;5897;42.640;23.310;2023-02-13T05:51:33;95671.53;;;0.92;95.17
11682;BME280;5897;42.640;23.310;2023-02-13T05:54:00;95678.56;;;0.97;95.06
11682;BME280;5897;42.640;23.310;2023-02-13T05:56:27;95683.81;;;1.05;95.57
11682;BME280;5897;42.640;23.310;2023-02-13T05:58:54;95679.25;;;1.06;94.24
11682;BME280;5897;42.640;23.310;2023-02-13T06:01:22;95681.88;;;1.14;94.01
11682;BME280;5897;42.640;23.310;2023-02-13T06:03:50;95692.06;;;1.12;93.46
11682;BME280;5897;42.640;23.310;2023-02-13T06:06:19;95685.56;;;1.01;95.94
11682;BME280;5897;42.640;23.310;2023-02-13T06:08:47;95690.66;;;1.15;94.92
11682;BME280;5897;42.640;23.310;2023-02-13T06:11:14;95695.25;;;1.26;93.46
11682;BME280;5897;42.640;23.310;2023-02-13T06:13:41;95696.47;;;1.29;93.66
11682;BME280;5897;42.640;23.310;2023-02-13T06:16:09;95694.78;;;1.24;93.58
11682;BME280;5897;42.640;23.310;2023-02-13T06:18:37;95694.00;;;1.24;94.45
11682;BME280;5897;42.640;23.310;2023-02-13T06:21:05;95694.78;;;1.24;94.57
11682;BME280;5897;42.640;23.310;2023-02-13T06:23:33;95677.13;;;1.40;94.51
11682;BME280;5897;42.640;23.310;2023-02-13T06:26:04;95691.63;;;1.51;92.27
11682;BME280;5897;42.640;23.310;2023-02-13T06:28:32;95703.88;;;1.64;90.68
11682;BME280;5897;42.640;23.310;2023-02-13T06:30:59;95696.59;;;1.53;89.91
11682;BME280;5897;42.640;23.310;2023-02-13T06:33:26;95700.91;;;1.45;91.14
11682;BME280;5897;42.640;23.310;2023-02-13T06:35:53;95703.16;;;1.55;90.54
11682;BME280;5897;42.640;23.310;2023-02-13T06:38:20;95708.03;;;1.53;90.51
11682;BME280;5897;42.640;23.310;2023-02-13T06:40:48;95704.13;;;1.51;90.73
11682;BME280;5897;42.640;23.310;2023-02-13T06:43:16;95705.63;;;1.60;91.27
11682;BME280;5897;42.640;23.310;2023-02-13T06:45:43;95710.50;;;1.58;90.40
11682;BME280;5897;42.640;23.310;2023-02-13T06:48:12;95703.75;;;1.40;90.83
11682;BME280;5897;42.640;23.310;2023-02-13T06:50:39;95705.19;;;1.58;91.63
11682;BME280;5897;42.640;23.310;2023-02-13T06:53:06;95711.53;;;1.66;92.23
11682;BME280;5897;42.640;23.310;2023-02-13T06:55:33;95712.28;;;1.87;93.29
11682;BME280;5897;42.640;23.310;2023-02-13T06:58:02;95711.63;;;1.90;93.65
11682;BME280;5897;42.640;23.310;2023-02-13T07:00:29;95709.72;;;1.90;91.01
11682;BME280;5897;42.640;23.310;2023-02-13T07:03:00;95710.19;;;1.92;89.18
11682;BME280;5897;42.640;23.310;2023-02-13T07:05:27;95703.56;;;1.98;87.71
11682;BME280;5897;42.640;23.310;2023-02-13T07:07:54;95713.28;;;1.82;87.84
11682;BME280;5897;42.640;23.310;2023-02-13T07:10:21;95710.44;;;1.67;88.67
11682;BME280;5897;42.640;23.310;2023-02-13T07:12:47;95702.44;;;1.67;88.77
11682;BME280;5897;42.640;23.310;2023-02-13T07:15:16;95694.00;;;1.65;89.42
11682;BME280;5897;42.640;23.310;2023-02-13T07:17:43;95701.19;;;1.85;89.08
11682;BME280;5897;42.640;23.310;2023-02-13T07:20:10;95701.41;;;1.92;88.74
11682;BME280;5897;42.640;23.310;2023-02-13T07:22:37;95707.78;;;1.99;87.02
11682;BME280;5897;42.640;23.310;2023-02-13T07:25:05;95711.06;;;2.17;86.09
11682;BME280;5897;42.640;23.310;2023-02-13T07:27:31;95715.47;;;2.13;86.61
11682;BME280;5897;42.640;23.310;2023-02-13T07:29:58;95711.06;;;2.17;87.33
11682;BME280;5897;42.640;23.310;2023-02-13T07:32:26;95718.28;;;2.28;86.17
11682;BME280;5897;42.640;23.310;2023-02-13T07:34:53;95715.91;;;2.15;86.03
11682;BME280;5897;42.640;23.310;2023-02-13T07:37:20;95716.50;;;2.20;85.14
11682;BME280;5897;42.640;23.310;2023-02-13T07:39:46;95710.50;;;2.23;85.94
11682;BME280;5897;42.640;23.310;2023-02-13T07:42:13;95719.41;;;2.27;86.42
11682;BME280;5897;42.640;23.310;2023-02-13T07:44:40;95714.31;;;2.34;85.65
11682;BME280;5897;42.640;23.310;2023-02-13T07:47:07;95714.09;;;2.39;84.47
11682;BME280;5897;42.640;23.310;2023-02-13T07:49:35;95717.06;;;2.38;85.21
11682;BME280;5897;42.640;23.310;2023-02-13T07:52:02;95715.19;;;2.38;84.98
11682;BME280;5897;42.640;23.310;2023-02-13T07:54:29;95726.44;;;2.44;84.89
11682;BME280;5897;42.640;23.310;2023-02-13T07:56:56;95713.00;;;2.64;83.66
11682;BME280;5897;42.640;23.310;2023-02-13T07:59:23;95710.13;;;2.69;83.61
11682;BME280;5897;42.640;23.310;2023-02-13T08:01:50;95710.56;;;2.71;83.42
11682;BME280;5897;42.640;23.310;2023-02-13T08:04:17;95717.69;;;2.67;81.86
11682;BME280;5897;42.640;23.310;2023-02-13T08:06:45;95706.56;;;2.65;91.23
11682;BME280;5897;42.640;23.310;2023-02-13T08:09:17;95700.00;;;2.87;92.17
11682;BME280;5897;42.640;23.310;2023-02-13T08:12:01;95719.47;;;3.11;85.11
11682;BME280;5897;42.640;23.310;2023-02-13T08:14:29;95716.22;;;3.18;83.29
11682;BME280;5897;42.640;23.310;2023-02-13T08:16:57;95707.88;;;3.07;81.10
11682;BME280;5897;42.640;23.310;2023-02-13T08:19:24;95712.13;;;2.96;82.78
11682;BME280;5897;42.640;23.310;2023-02-13T08:21:52;95720.03;;;2.81;81.71
11682;BME280;5897;42.640;23.310;2023-02-13T08:24:19;95711.59;;;2.91;81.81
11682;BME280;5897;42.640;23.310;2023-02-13T08:26:46;95719.66;;;3.18;80.75
11682;BME280;5897;42.640;23.310;2023-02-13T08:29:13;95721.00;;;3.12;82.93
11682;BME280;5897;42.640;23.310;2023-02-13T08:31:40;95718.75;;;3.26;79.64
11682;BME280;5897;42.640;23.310;2023-02-13T08:34:07;95723.66;;;3.24;77.19
11682;BME280;5897;42.640;23.310;2023-02-13T08:36:34;95713.41;;;3.26;77.25
11682;BME280;5897;42.640;23.310;2023-02-13T08:39:02;95718.66;;;3.23;78.17
11682;BME280;5897;42.640;23.310;2023-02-13T08:41:29;95719.22;;;3.28;77.93
11682;BME280;5897;42.640;23.310;2023-02-13T08:43:55;95719.44;;;3.23;78.63
11682;BME280;5897;42.640;23.310;2023-02-13T08:46:22;95715.44;;;3.29;77.40
11682;BME280;5897;42.640;23.310;2023-02-13T08:48:49;95723.88;;;3.31;79.70
11682;BME280;5897;42.640;23.310;2023-02-13T08:51:16;95720.41;;;3.43;78.10
11682;BME280;5897;42.640;23.310;2023-02-13T08:53:43;95719.41;;;3.47;76.63
11682;BME280;5897;42.640;23.310;2023-02-13T08:56:11;95719.16;;;3.52;75.18
11682;BME280;5897;42.640;23.310;2023-02-13T08:58:38;95723.31;;;3.38;75.80
11682;BME280;5897;42.640;23.310;2023-02-13T09:01:05;95723.88;;;3.31;76.33
11682;BME280;5897;42.640;23.310;2023-02-13T09:03:32;95720.56;;;3.22;77.06
11682;BME280;5897;42.640;23.310;2023-02-13T09:05:59;95727.03;;;3.21;76.31
11682;BME280;5897;42.640;23.310;2023-02-13T09:08:27;95717.22;;;3.25;77.05
11682;BME280;5897;42.640;23.310;2023-02-13T09:10:55;95725.56;;;3.36;77.04
11682;BME280;5897;42.640;23.310;2023-02-13T09:13:24;95712.38;;;3.55;76.25
11682;BME280;5897;42.640;23.310;2023-02-13T09:15:50;95726.69;;;3.74;76.55
11682;BME280;5897;42.640;23.310;2023-02-13T09:18:17;95724.78;;;4.02;75.51
11682;BME280;5897;42.640;23.310;2023-02-13T09:20:44;95724.63;;;4.11;74.80
11682;BME280;5897;42.640;23.310;2023-02-13T09:23:11;95713.72;;;4.31;74.91
11682;BME280;5897;42.640;23.310;2023-02-13T09:25:37;95708.47;;;4.50;73.92
11682;BME280;5897;42.640;23.310;2023-02-13T09:28:04;95708.22;;;4.71;71.14
11682;BME280;5897;42.640;23.310;2023-02-13T09:30:32;95709.34;;;4.70;72.01
11682;BME280;5897;42.640;23.310;2023-02-13T09:32:59;95704.31;;;4.99;71.56
11682;BME280;5897;42.640;23.310;2023-02-13T09:35:26;95698.28;;;5.37;69.98
11682;BME280;5897;42.640;23.310;2023-02-13T09:37:53;95699.44;;;5.74;67.32
11682;BME280;5897;42.640;23.310;2023-02-13T09:40:24;95702.16;;;5.93;65.40
11682;BME280;5897;42.640;23.310;2023-02-13T09:42:52;95689.22;;;5.98;64.89
11682;BME280;5897;42.640;23.310;2023-02-13T09:45:22;95693.00;;;6.35;64.27
11682;BME280;5897;42.640;23.310;2023-02-13T09:47:50;95695.91;;;6.68;62.73
11682;BME280;5897;42.640;23.310;2023-02-13T09:50:21;95691.69;;;6.93;62.70
11682;BME280;5897;42.640;23.310;2023-02-13T09:52:50;95679.19;;;7.30;60.45
11682;BME280;5897;42.640;23.310;2023-02-13T09:55:20;95682.50;;;7.46;58.10
11682;BME280;5897;42.640;23.310;2023-02-13T09:57:52;95676.88;;;7.58;59.51
11682;BME280;5897;42.640;23.310;2023-02-13T10:00:25;95668.09;;;7.61;57.88
11682;BME280;5897;42.640;23.310;2023-02-13T10:03:22;95667.88;;;7.73;58.18
11682;BME280;5897;42.640;23.310;2023-02-13T10:05:59;95666.41;;;8.12;57.36
11682;BME280;5897;42.640;23.310;2023-02-13T10:08:50;95666.53;;;8.59;56.20
11682;BME280;5897;42.640;23.310;2023-02-13T10:11:39;95660.34;;;8.59;54.29
11682;BME280;5897;42.640;23.310;2023-02-13T10:14:14;95658.31;;;8.45;55.24
11682;BME280;5897;42.640;23.310;2023-02-13T10:16:44;95658.19;;;8.75;55.03
11682;BME280;5897;42.640;23.310;2023-02-13T10:19:23;95652.56;;;8.90;54.63
11682;BME280;5897;42.640;23.310;2023-02-13T10:21:58;95648.38;;;8.96;53.97
11682;BME280;5897;42.640;23.310;2023-02-13T10:24:31;95648.75;;;8.98;52.73
11682;BME280;5897;42.640;23.310;2023-02-13T10:27:04;95645.78;;;9.14;52.26
11682;BME280;5897;42.640;23.310;2023-02-13T10:29:38;95634.88;;;8.96;52.63
11682;BME280;5897;42.640;23.310;2023-02-13T10:32:28;95629.03;;;9.45;52.11
11682;BME280;5897;42.640;23.310;2023-02-13T10:35:03;95626.13;;;9.88;51.10
11682;BME280;5897;42.640;23.310;2023-02-13T10:37:42;95610.06;;;10.16;49.72
11682;BME280;5897;42.640;23.310;2023-02-13T10:40:10;95610.47;;;10.60;48.57
11682;BME280;5897;42.640;23.310;2023-02-13T10:42:43;95605.47;;;10.73;47.59
11682;BME280;5897;42.640;23.310;2023-02-13T10:45:22;95606.25;;;10.49;48.34
11682;BME280;5897;42.640;23.310;2023-02-13T10:48:01;95600.06;;;10.73;48.35
11682;BME280;5897;42.640;23.310;2023-02-13T10:50:35;95599.28;;;10.51;47.56
11682;BME280;5897;42.640;23.310;2023-02-13T10:53:13;95578.06;;;10.74;46.93
11682;BME280;5897;42.640;23.310;2023-02-13T10:55:59;95589.25;;;10.97;47.17
11682;BME280;5897;42.640;23.310;2023-02-13T10:58:42;95589.97;;;11.19;45.96
11682;BME280;5897;42.640;23.310;2023-02-13T11:01:17;95590.66;;;11.57;45.67
11682;BME280;5897;42.640;23.310;2023-02-13T11:03:45;95567.50;;;11.46;43.78
11682;BME280;5897;42.640;23.310;2023-02-13T11:06:17;95576.25;;;11.82;44.94
11682;BME280;5897;42.640;23.310;2023-02-13T11:08:45;95585.75;;;12.14;43.46
11682;BME280;5897;42.640;23.310;2023-02-13T11:11:30;95575.59;;;12.32;42.45
11682;BME280;5897;42.640;23.310;2023-02-13T11:14:09;95580.03;;;12.63;42.00
11682;BME280;5897;42.640;23.310;2023-02-13T11:16:39;95567.25;;;13.11;40.63
11682;BME280;5897;42.640;23.310;2023-02-13T11:19:15;95562.06;;;12.83;41.57
11682;BME280;5897;42.640;23.310;2023-02-13T11:21:45;95561.00;;;13.14;40.14
11682;BME280;5897;42.640;23.310;2023-02-13T11:24:21;95544.19;;;13.63;39.03
11682;BME280;5897;42.640;23.310;2023-02-13T11:26:53;95535.78;;;13.80;38.07
11682;BME280;5897;42.640;23.310;2023-02-13T11:29:25;95534.03;;;14.27;37.42
11682;BME280;5897;42.640;23.310;2023-02-13T11:32:05;95510.22;;;13.48;37.00
11682;BME280;5897;42.640;23.310;2023-02-13T11:34:36;95525.84;;;14.00;37.74
11682;BME280;5897;42.640;23.310;2023-02-13T11:37:15;95523.97;;;14.24;36.53
11682;BME280;5897;42.640;23.310;2023-02-13T11:39:44;95514.19;;;14.00;35.39
11682;BME280;5897;42.640;23.310;2023-02-13T11:42:12;95508.50;;;14.17;36.50
11682;BME280;5897;42.640;23.310;2023-02-13T11:44:40;95504.88;;;14.54;35.69
11682;BME280;5897;42.640;23.310;2023-02-13T11:47:07;95500.25;;;14.74;35.20
11682;BME280;5897;42.640;23.310;2023-02-13T11:49:35;95494.19;;;14.86;34.77
11682;BME280;5897;42.640;23.310;2023-02-13T11:52:05;95493.72;;;15.33;33.95
11682;BME280;5897;42.640;23.310;2023-02-13T11:54:35;95487.03;;;15.38;33.63
11682;BME280;5897;42.640;23.310;2023-02-13T11:57:17;95474.56;;;14.75;34.47
11682;BME280;5897;42.640;23.310;2023-02-13T11:59:47;95474.63;;;15.14;33.57
11682;BME280;5897;42.640;23.310;2023-02-13T12:02:17;95461.59;;;15.25;33.38
11682;BME280;5897;42.640;23.310;2023-02-13T12:04:45;95465.13;;;14.60;33.64
11682;BME280;5897;42.640;23.310;2023-02-13T12:07:15;95470.66;;;14.30;34.78
11682;BME280;5897;42.640;23.310;2023-02-13T12:09:46;95453.13;;;15.00;33.42
11682;BME280;5897;42.640;23.310;2023-02-13T12:12:17;95457.63;;;15.49;32.89
11682;BME280;5897;42.640;23.310;2023-02-13T12:14:45;95455.31;;;15.67;32.39
11682;BME280;5897;42.640;23.310;2023-02-13T12:17:14;95455.94;;;15.90;31.90
11682;BME280;5897;42.640;23.310;2023-02-13T12:19:43;95457.59;;;15.68;32.02
11682;BME280;5897;42.640;23.310;2023-02-13T12:22:17;95462.56;;;15.15;33.14
11682;BME280;5897;42.640;23.310;2023-02-13T12:25:05;95450.63;;;15.28;32.50
11682;BME280;5897;42.640;23.310;2023-02-13T12:27:45;95455.03;;;15.61;32.28
11682;BME280;5897;42.640;23.310;2023-02-13T12:33:33;95446.63;;;15.36;32.00
11682;BME280;5897;42.640;23.310;2023-02-13T12:36:13;95450.28;;;15.07;31.84
11682;BME280;5897;42.640;23.310;2023-02-13T12:38:57;95450.78;;;14.79;32.76
11682;BME280;5897;42.640;23.310;2023-02-13T12:41:39;95440.13;;;14.68;33.33
11682;BME280;5897;42.640;23.310;2023-02-13T12:44:44;95436.03;;;15.19;32.60
11682;BME280;5897;42.640;23.310;2023-02-13T12:47:18;95431.50;;;15.12;32.06
11682;BME280;5897;42.640;23.310;2023-02-13T12:50:05;95428.97;;;15.60;31.10
11682;BME280;5897;42.640;23.310;2023-02-13T12:52:42;95414.28;;;15.74;30.55
11682;BME280;5897;42.640;23.310;2023-02-13T12:55:22;95412.75;;;15.73;30.53
11682;BME280;5897;42.640;23.310;2023-02-13T12:58:01;95414.16;;;16.13;29.95
11682;BME280;5897;42.640;23.310;2023-02-13T13:00:41;95419.28;;;15.59;31.02
11682;BME280;5897;42.640;23.310;2023-02-13T13:03:32;95424.34;;;15.93;30.56
11682;BME280;5897;42.640;23.310;2023-02-13T13:06:12;95416.19;;;15.57;30.63
11682;BME280;5897;42.640;23.310;2023-02-13T13:12:10;95409.44;;;14.87;31.36
11682;BME280;5897;42.640;23.310;2023-02-13T13:14:49;95394.50;;;14.95;31.64
11682;BME280;5897;42.640;23.310;2023-02-13T13:17:26;95409.44;;;15.26;31.32
11682;BME280;5897;42.640;23.310;2023-02-13T13:19:59;95410.66;;;15.96;29.95
11682;BME280;5897;42.640;23.310;2023-02-13T13:22:33;95395.66;;;15.88;29.94
11682;BME280;5897;42.640;23.310;2023-02-13T13:25:11;95398.97;;;15.80;29.59
11682;BME280;5897;42.640;23.310;2023-02-13T13:27:46;95390.97;;;16.05;29.82
11682;BME280;5897;42.640;23.310;2023-02-13T13:30:19;95391.66;;;15.93;29.60
11682;BME280;5897;42.640;23.310;2023-02-13T13:32:50;95386.53;;;15.79;29.98
11682;BME280;5897;42.640;23.310;2023-02-13T13:35:20;95388.81;;;15.64;30.01
11682;BME280;5897;42.640;23.310;2023-02-13T13:37:52;95391.22;;;15.78;29.78
11682;BME280;5897;42.640;23.310;2023-02-13T13:40:33;95378.34;;;15.63;30.30